Sumach, Washington
Current Conditions -  °F | °C
As of 8:53 PM on Monday 20 Oct 2014 (Local Time) from KYKM Reporting Station
Clear Clear  
Wind Chill: 53°   Ceiling: Unl
Heat Index: 53°   Visibility: 10mi
Dew Point: 48°   Wind: 3mph
Humidity: 83%   Direction: 90°E
Pressure: 29.81"   Gusts: NA
Location:  46.562°N, 120.899°W
Report Text: KYKM 210353Z 09003KT 10SM CLR 12/09 A2981 RMK AO2 SLP096 T01170089
Loading
Personal Weather Stations






























Interactive Weather Map
Tropical Storm Tracking
New forecast layout! Learn more

10-Day Weather Forecast

Advertisements
Track Severe Weather on mobile